Time;durP1;ratioP1;P1;durP2;ratioP2;P2;SDS_P1;SDS_P2;PMS_P1;PMS_P2;Temp;Humidity;BMP_temperature;BMP_pressure;BME280_temperature;BME280_humidity;BME280_pressure;Samples;Min_cycle;Max_cycle;Signal;HPM_P1;HPM_P2
2023/11/28 00:01:35;;;;;;;0.30;0.30;;;3.80;99.90;;;;;;4978502;28;21112;-83
2023/11/28 00:04:00;;;;;;;0.30;0.30;;;3.80;99.90;;;;;;4960933;28;20235;-82
2023/11/28 00:06:26;;;;;;;0.30;0.30;;;3.70;99.90;;;;;;4979601;28;20267;-82
2023/11/28 00:08:52;;;;;;;0.40;0.40;;;3.80;99.90;;;;;;4978254;28;20264;-82
2023/11/28 00:11:19;;;;;;;0.30;0.30;;;3.80;99.90;;;;;;4968323;28;20223;-83
2023/11/28 00:13:45;;;;;;;0.93;0.93;;;3.80;99.90;;;;;;5002950;28;20186;-82
2023/11/28 00:16:11;;;;;;;0.20;0.20;;;3.80;99.90;;;;;;4985762;28;20187;-83
2023/11/28 00:18:37;;;;;;;0.40;0.40;;;3.80;99.90;;;;;;4976584;28;20231;-83
2023/11/28 00:21:03;;;;;;;0.40;0.40;;;3.70;99.90;;;;;;4968614;28;20268;-82
2023/11/28 00:23:28;;;;;;;0.20;0.20;;;3.70;99.90;;;;;;4984262;28;20235;-82
2023/11/28 00:25:54;;;;;;;0.20;0.20;;;3.70;99.90;;;;;;4983341;28;20196;-83
2023/11/28 00:28:20;;;;;;;0.33;0.33;;;3.70;99.90;;;;;;4983765;28;20199;-83
2023/11/28 00:30:46;;;;;;;0.20;0.20;;;3.70;99.90;;;;;;4957513;28;20243;-83
2023/11/28 00:33:12;;;;;;;0.23;0.23;;;3.60;99.90;;;;;;4975569;28;20417;-83
2023/11/28 00:35:38;;;;;;;0.20;0.20;;;3.60;99.90;;;;;;4967390;28;20274;-82
2023/11/28 00:38:06;;;;;;;0.20;0.20;;;3.60;99.90;;;;;;4972533;28;21076;-83
2023/11/28 00:40:32;;;;;;;0.20;0.20;;;3.60;99.90;;;;;;5001336;28;20247;-83
2023/11/28 00:43:00;;;;;;;0.87;0.67;;;3.60;99.90;;;;;;4989357;28;20741;-83
2023/11/28 00:45:26;;;;;;;0.53;0.53;;;3.50;99.90;;;;;;4999958;28;20219;-83
2023/11/28 00:47:53;;;;;;;0.20;0.20;;;3.50;99.90;;;;;;4982732;28;20276;-82
2023/11/28 00:50:19;;;;;;;0.50;0.50;;;3.40;99.90;;;;;;4982181;28;20227;-83
2023/11/28 00:52:45;;;;;;;0.40;0.40;;;3.40;99.90;;;;;;4983298;28;20710;-83
2023/11/28 00:55:11;;;;;;;0.30;0.30;;;3.40;99.90;;;;;;4958395;28;20233;-83
2023/11/28 00:57:37;;;;;;;0.30;0.30;;;3.40;99.90;;;;;;4973994;28;20740;-84
2023/11/28 01:00:09;;;;;;;0.83;0.83;;;3.40;99.90;;;;;;4969802;28;20230;-85
2023/11/28 01:02:34;;;;;;;0.30;0.30;;;3.40;99.90;;;;;;4973889;28;20365;-84
2023/11/28 01:05:00;;;;;;;4.87;1.73;;;3.30;99.90;;;;;;4968724;28;20712;-83
2023/11/28 01:07:26;;;;;;;3.70;0.77;;;3.30;99.90;;;;;;4983583;28;20644;-84
2023/11/28 01:09:55;;;;;;;0.30;0.30;;;3.30;99.90;;;;;;4958026;28;20688;-84
2023/11/28 01:12:20;;;;;;;0.40;0.40;;;3.40;99.90;;;;;;4960592;28;20230;-84
2023/11/28 01:14:46;;;;;;;0.30;0.30;;;3.40;99.90;;;;;;4970610;28;20227;-83
2023/11/28 01:17:13;;;;;;;0.20;0.20;;;3.30;99.90;;;;;;4970442;28;20298;-83
2023/11/28 01:19:39;;;;;;;0.30;0.30;;;3.30;99.90;;;;;;4979236;28;20195;-83
2023/11/28 01:22:06;;;;;;;5.20;1.60;;;3.40;99.90;;;;;;4987283;28;20211;-83
2023/11/28 01:24:33;;;;;;;0.20;0.20;;;3.40;99.90;;;;;;4987237;28;20906;-83
2023/11/28 01:26:58;;;;;;;0.30;0.30;;;3.40;99.90;;;;;;4977081;28;21075;-82
2023/11/28 01:29:24;;;;;;;0.20;0.20;;;3.40;99.90;;;;;;4971285;28;20219;-83
2023/11/28 01:31:51;;;;;;;0.53;0.50;;;3.50;99.90;;;;;;5004552;28;20249;-83
2023/11/28 01:34:17;;;;;;;0.40;0.40;;;3.60;99.90;;;;;;4977578;28;20203;-83
2023/11/28 01:36:43;;;;;;;0.40;0.40;;;3.60;99.90;;;;;;4992946;28;20634;-83
2023/11/28 01:39:10;;;;;;;0.40;0.37;;;3.70;99.90;;;;;;5005205;28;20222;-83
2023/11/28 01:41:36;;;;;;;16.50;2.03;;;3.80;99.90;;;;;;5003969;28;20227;-84
2023/11/28 01:44:03;;;;;;;0.93;0.93;;;3.80;99.90;;;;;;4986162;28;20284;-84
2023/11/28 01:46:31;;;;;;;0.53;0.53;;;3.90;99.90;;;;;;4971406;28;20598;-84
2023/11/28 01:48:57;;;;;;;0.30;0.30;;;3.90;99.90;;;;;;4976090;28;20273;-83
2023/11/28 01:51:23;;;;;;;0.40;0.40;;;4.00;99.90;;;;;;4987921;28;20219;-84
2023/11/28 01:53:52;;;;;;;0.30;0.30;;;4.10;99.90;;;;;;4978846;28;20296;-83
2023/11/28 01:56:18;;;;;;;1.07;1.00;;;4.10;99.90;;;;;;4978621;28;20402;-83
2023/11/28 01:58:44;;;;;;;0.20;0.20;;;4.10;99.90;;;;;;4978770;28;21026;-82
2023/11/28 02:01:09;;;;;;;0.40;0.40;;;4.00;99.90;;;;;;4978818;28;20685;-82
2023/11/28 02:03:37;;;;;;;0.60;0.60;;;4.00;99.90;;;;;;5002099;28;20235;-81
2023/11/28 02:06:04;;;;;;;0.47;0.47;;;4.00;99.90;;;;;;4980914;28;20757;-83
2023/11/28 02:08:29;;;;;;;1.37;1.27;;;4.00;99.90;;;;;;4985617;28;20255;-82
2023/11/28 02:10:55;;;;;;;0.30;0.30;;;4.00;99.90;;;;;;4986952;28;20319;-82
2023/11/28 02:13:21;;;;;;;1.10;0.70;;;4.00;99.90;;;;;;4972132;28;20568;-84
2023/11/28 02:15:47;;;;;;;0.20;0.20;;;3.90;99.90;;;;;;4985591;28;20231;-84
2023/11/28 02:18:14;;;;;;;0.30;0.30;;;3.90;99.90;;;;;;4962012;28;20735;-83
2023/11/28 02:20:40;;;;;;;0.30;0.30;;;3.90;99.90;;;;;;4985021;28;20231;-84
2023/11/28 02:23:06;;;;;;;0.40;0.40;;;3.90;99.90;;;;;;4979253;28;20231;-84
2023/11/28 02:25:45;;;;;;;0.20;0.20;;;4.00;99.90;;;;;;4971056;28;20233;-83
2023/11/28 02:28:16;;;;;;;0.30;0.30;;;3.90;99.90;;;;;;4986323;28;20871;-81
2023/11/28 02:30:46;;;;;;;0.30;0.30;;;4.00;99.90;;;;;;5001770;28;20589;-83
2023/11/28 02:33:11;;;;;;;0.37;0.37;;;4.00;99.90;;;;;;4974045;28;20246;-82
2023/11/28 02:35:37;;;;;;;0.60;0.60;;;4.10;99.90;;;;;;4964719;28;20719;-81
2023/11/28 02:38:03;;;;;;;1.70;1.13;;;4.10;99.90;;;;;;4973262;28;20249;-85
2023/11/28 02:40:29;;;;;;;0.30;0.30;;;4.10;99.90;;;;;;4989157;28;20212;-83
2023/11/28 02:42:54;;;;;;;0.20;0.20;;;4.10;99.90;;;;;;5014747;28;20258;-87
2023/11/28 02:45:20;;;;;;;0.20;0.20;;;4.10;99.90;;;;;;4981987;28;20289;-86
2023/11/28 02:47:46;;;;;;;0.30;0.30;;;4.10;99.90;;;;;;5014012;28;20223;-86
2023/11/28 02:50:12;;;;;;;4.50;0.77;;;4.10;99.90;;;;;;5014477;28;20240;-87
2023/11/28 02:52:39;;;;;;;0.20;0.20;;;4.10;99.90;;;;;;4982113;28;20279;-85
2023/11/28 02:55:05;;;;;;;0.53;0.53;;;4.10;99.90;;;;;;4997674;28;20207;-87
2023/11/28 02:57:30;;;;;;;0.30;0.30;;;4.10;99.90;;;;;;4981524;28;20358;-87
2023/11/28 02:59:56;;;;;;;0.20;0.20;;;4.00;99.90;;;;;;4997244;28;20301;-87
2023/11/28 03:02:22;;;;;;;0.30;0.30;;;4.10;99.90;;;;;;4997430;28;20215;-88
2023/11/28 03:04:48;;;;;;;0.50;0.50;;;4.00;99.90;;;;;;5013518;28;20580;-87
2023/11/28 03:07:14;;;;;;;0.53;0.53;;;4.00;99.90;;;;;;5014299;28;20258;-87
2023/11/28 03:09:42;;;;;;;0.43;0.43;;;4.00;99.90;;;;;;4997550;28;20226;-87
2023/11/28 03:12:11;;;;;;;0.20;0.20;;;4.10;99.90;;;;;;4997279;28;20241;-87
2023/11/28 03:14:37;;;;;;;0.67;0.67;;;4.00;99.90;;;;;;4997253;28;20314;-86
2023/11/28 03:17:03;;;;;;;4.37;0.47;;;4.10;99.90;;;;;;5013419;28;20238;-88
2023/11/28 03:19:29;;;;;;;4.77;0.57;;;4.00;99.90;;;;;;5013997;28;20184;-86
2023/11/28 03:21:55;;;;;;;0.30;0.30;;;4.00;99.90;;;;;;4997171;28;20265;-85
2023/11/28 03:24:20;;;;;;;0.53;0.53;;;4.10;99.90;;;;;;4997722;28;20231;-86
2023/11/28 03:26:46;;;;;;;1.10;1.07;;;4.10;99.90;;;;;;4981231;28;20226;-87
2023/11/28 03:29:13;;;;;;;0.97;0.97;;;4.10;99.90;;;;;;4997395;28;20665;-87
2023/11/28 03:31:38;;;;;;;0.60;0.60;;;4.10;99.90;;;;;;5014334;28;20542;-86
2023/11/28 03:34:05;;;;;;;0.20;0.20;;;4.10;99.90;;;;;;4996588;28;20219;-86
2023/11/28 03:36:31;;;;;;;1.60;1.50;;;4.10;99.90;;;;;;4997284;28;20215;-87
2023/11/28 03:38:57;;;;;;;0.47;0.47;;;4.10;99.90;;;;;;5014219;28;20225;-87
2023/11/28 03:41:23;;;;;;;0.20;0.20;;;4.10;99.90;;;;;;4996684;28;20207;-87
2023/11/28 03:43:48;;;;;;;0.20;0.20;;;4.10;99.90;;;;;;4996772;28;20238;-84
2023/11/28 03:46:14;;;;;;;0.30;0.30;;;4.20;99.90;;;;;;4980876;28;20180;-86
2023/11/28 03:48:40;;;;;;;0.47;0.47;;;4.20;99.90;;;;;;5014216;28;20223;-88
2023/11/28 03:51:06;;;;;;;0.50;0.50;;;4.20;99.90;;;;;;4996750;28;20679;-86
2023/11/28 03:53:32;;;;;;;0.60;0.60;;;4.10;99.90;;;;;;4980981;28;20258;-87
2023/11/28 03:56:03;;;;;;;1.07;0.97;;;4.10;99.90;;;;;;4980477;28;20180;-87
2023/11/28 03:58:29;;;;;;;0.40;0.40;;;4.10;99.90;;;;;;5013652;28;20168;-86
2023/11/28 04:00:55;;;;;;;0.47;0.47;;;4.10;99.90;;;;;;4995603;28;20254;-87
2023/11/28 04:03:20;;;;;;;0.53;0.53;;;4.20;99.90;;;;;;5012822;28;20681;-87
2023/11/28 04:05:46;;;;;;;0.87;0.87;;;4.20;99.90;;;;;;4980206;28;20565;-86
2023/11/28 04:08:12;;;;;;;0.53;0.53;;;4.20;99.90;;;;;;4964434;28;20215;-86
2023/11/28 04:10:38;;;;;;;0.43;0.43;;;4.20;99.90;;;;;;4997034;28;20184;-87
2023/11/28 04:13:03;;;;;;;0.30;0.30;;;4.10;99.90;;;;;;5013166;28;20246;-87
2023/11/28 04:15:29;;;;;;;0.37;0.37;;;4.00;99.90;;;;;;4977201;28;20274;-87
2023/11/28 04:17:55;;;;;;;0.20;0.20;;;3.80;99.90;;;;;;4987164;28;20241;-87
2023/11/28 04:20:20;;;;;;;0.30;0.30;;;3.70;99.90;;;;;;4976721;28;20223;-87
2023/11/28 04:22:46;;;;;;;0.20;0.20;;;3.30;99.90;;;;;;4993012;28;20442;-87
2023/11/28 04:25:12;;;;;;;0.20;0.20;;;3.20;99.90;;;;;;4961243;28;20181;-87
2023/11/28 04:27:37;;;;;;;0.30;0.30;;;3.20;99.90;;;;;;4976485;28;20306;-87
2023/11/28 04:30:04;;;;;;;0.50;0.50;;;3.30;99.90;;;;;;4996326;28;20590;-87
2023/11/28 04:32:30;;;;;;;0.30;0.30;;;3.30;99.90;;;;;;4963894;28;20270;-88
2023/11/28 04:34:55;;;;;;;0.40;0.40;;;3.30;99.90;;;;;;5009968;28;20180;-85
2023/11/28 04:37:21;;;;;;;0.30;0.30;;;3.30;99.90;;;;;;4977267;28;20184;-88
2023/11/28 04:39:47;;;;;;;0.30;0.30;;;3.40;99.90;;;;;;4993921;28;20223;-87
2023/11/28 04:42:13;;;;;;;1.27;1.27;;;3.40;99.90;;;;;;4980103;28;20586;-87
2023/11/28 04:44:40;;;;;;;0.40;0.40;;;3.50;99.90;;;;;;4963659;28;20230;-87
2023/11/28 04:47:06;;;;;;;0.30;0.30;;;3.60;99.90;;;;;;4995781;28;20215;-87
2023/11/28 04:49:31;;;;;;;0.40;0.40;;;3.60;99.90;;;;;;5012743;28;20190;-88
2023/11/28 04:51:57;;;;;;;0.40;0.40;;;3.70;99.90;;;;;;4963775;28;20220;-87
2023/11/28 04:54:23;;;;;;;0.30;0.30;;;3.70;99.90;;;;;;4979891;28;20241;-85
2023/11/28 04:56:48;;;;;;;0.83;0.83;;;3.80;99.90;;;;;;4980065;28;20215;-87
2023/11/28 04:59:14;;;;;;;0.30;0.30;;;3.80;99.90;;;;;;5000481;28;20238;-86
2023/11/28 05:01:46;;;;;;;0.30;0.30;;;3.80;99.90;;;;;;4999176;28;20642;-86
2023/11/28 05:04:15;;;;;;;0.30;0.30;;;3.90;99.90;;;;;;5032373;28;20684;-86
2023/11/28 05:06:42;;;;;;;0.30;0.30;;;3.90;99.90;;;;;;5015562;28;20218;-87
2023/11/28 05:09:07;;;;;;;0.57;0.57;;;3.90;99.90;;;;;;5031840;28;20312;-87
2023/11/28 05:11:33;;;;;;;0.20;0.20;;;3.90;99.90;;;;;;5015405;28;20240;-87
2023/11/28 05:13:59;;;;;;;0.20;0.20;;;3.80;99.90;;;;;;5031745;28;20626;-87
2023/11/28 05:16:25;;;;;;;0.30;0.30;;;3.90;99.90;;;;;;5032387;28;20262;-88
2023/11/28 05:18:51;;;;;;;0.30;0.30;;;3.90;99.90;;;;;;5031871;28;20222;-87
2023/11/28 05:21:18;;;;;;;1.60;0.77;;;3.90;99.90;;;;;;5015750;28;20225;-86
2023/11/28 05:23:44;;;;;;;0.50;0.50;;;3.90;99.90;;;;;;5031417;28;20317;-87
2023/11/28 05:26:10;;;;;;;0.20;0.20;;;3.90;99.90;;;;;;5031545;28;20233;-87
2023/11/28 05:28:36;;;;;;;0.30;0.30;;;3.90;99.90;;;;;;4999564;28;20191;-87
2023/11/28 05:31:03;;;;;;;0.43;0.43;;;3.80;99.90;;;;;;5031636;28;20242;-88
2023/11/28 05:33:28;;;;;;;0.30;0.30;;;3.80;99.90;;;;;;5015902;28;20297;-87
2023/11/28 05:35:54;;;;;;;0.27;0.27;;;3.90;99.90;;;;;;4999123;28;20245;-87
2023/11/28 05:38:20;;;;;;;0.57;0.57;;;3.90;99.90;;;;;;5015184;28;20221;-87
2023/11/28 05:40:45;;;;;;;0.23;0.23;;;4.00;99.90;;;;;;5031609;28;20183;-86
2023/11/28 05:43:11;;;;;;;0.20;0.20;;;4.00;99.90;;;;;;5016114;28;20211;-85
2023/11/28 05:45:37;;;;;;;3.23;1.13;;;4.00;99.90;;;;;;5015375;28;20678;-87
2023/11/28 05:48:03;;;;;;;0.20;0.20;;;4.00;99.90;;;;;;5015068;28;20236;-87
2023/11/28 05:50:29;;;;;;;0.50;0.50;;;4.00;99.90;;;;;;5031405;28;20219;-86
2023/11/28 05:52:55;;;;;;;0.30;0.30;;;4.00;99.90;;;;;;4998516;28;20182;-87
2023/11/28 05:55:22;;;;;;;0.20;0.20;;;4.00;99.90;;;;;;5016006;28;20185;-85
2023/11/28 05:57:48;;;;;;;0.20;0.20;;;3.80;99.90;;;;;;5019050;28;20578;-86
2023/11/28 06:00:15;;;;;;;0.40;0.40;;;3.80;99.90;;;;;;5034642;28;20238;-87
2023/11/28 06:02:40;;;;;;;0.30;0.30;;;3.70;99.90;;;;;;5034658;28;20226;-86
2023/11/28 06:05:07;;;;;;;0.50;0.50;;;3.70;99.90;;;;;;5018221;28;20654;-87
2023/11/28 06:07:33;;;;;;;0.30;0.30;;;3.70;99.90;;;;;;5019023;28;20185;-87
2023/11/28 06:09:59;;;;;;;0.23;0.23;;;3.60;99.90;;;;;;5035730;28;20219;-86
2023/11/28 06:12:25;;;;;;;0.30;0.30;;;3.60;99.90;;;;;;5018433;28;20226;-86
2023/11/28 06:14:54;;;;;;;0.43;0.43;;;3.50;99.90;;;;;;5035171;28;20671;-88
2023/11/28 06:17:20;;;;;;;0.30;0.30;;;3.50;99.90;;;;;;5001760;28;20249;-87
2023/11/28 06:19:45;;;;;;;0.30;0.30;;;3.50;99.90;;;;;;5034594;28;20178;-86
2023/11/28 06:22:11;;;;;;;0.40;0.40;;;3.50;99.90;;;;;;5002739;28;20174;-87
2023/11/28 06:24:37;;;;;;;0.30;0.30;;;3.40;99.90;;;;;;5018192;28;20234;-87
2023/11/28 06:27:06;;;;;;;1.17;0.90;;;3.30;99.90;;;;;;5001810;28;20731;-87
2023/11/28 06:29:32;;;;;;;0.60;0.60;;;3.30;99.90;;;;;;5034336;28;20218;-86
2023/11/28 06:31:59;;;;;;;0.83;0.83;;;3.30;99.90;;;;;;5017917;28;20183;-85
2023/11/28 06:34:28;;;;;;;0.20;0.20;;;3.30;99.90;;;;;;5018481;28;20190;-87
2023/11/28 06:36:54;;;;;;;0.50;0.50;;;3.20;99.90;;;;;;5017922;28;20221;-87
2023/11/28 06:39:23;;;;;;;0.20;0.20;;;3.10;99.90;;;;;;5018300;28;20219;-85
2023/11/28 06:41:49;;;;;;;0.30;0.30;;;3.10;99.90;;;;;;5002128;28;20301;-87
2023/11/28 06:44:18;;;;;;;0.27;0.27;;;3.00;99.90;;;;;;5034246;28;20234;-86
2023/11/28 06:46:46;;;;;;;0.30;0.30;;;3.00;99.90;;;;;;5017696;28;20183;-86
2023/11/28 06:49:12;;;;;;;0.33;0.33;;;3.00;99.90;;;;;;5034305;28;20623;-87
2023/11/28 06:51:38;;;;;;;0.30;0.30;;;3.00;99.90;;;;;;5034392;28;20281;-87
2023/11/28 06:54:04;;;;;;;0.30;0.30;;;3.10;99.90;;;;;;5018341;28;20222;-86
2023/11/28 06:56:30;;;;;;;0.30;0.30;;;3.10;99.90;;;;;;5017546;28;20233;-86
2023/11/28 06:58:56;;;;;;;0.37;0.37;;;3.10;99.90;;;;;;5033729;28;20190;-88
2023/11/28 07:01:23;;;;;;;0.30;0.30;;;3.00;99.90;;;;;;5018622;28;20274;-87
2023/11/28 07:03:49;;;;;;;0.63;0.63;;;3.00;99.90;;;;;;5017787;28;20234;-87
2023/11/28 07:06:15;;;;;;;0.30;0.30;;;3.00;99.90;;;;;;5000979;28;20222;-86
2023/11/28 07:08:41;;;;;;;0.60;0.60;;;3.00;99.90;;;;;;5034622;28;20211;-88
2023/11/28 07:11:17;;;;;;;0.77;0.77;;;3.10;99.90;;;;;;5017159;28;20211;-89
2023/11/28 07:13:42;;;;;;;0.37;0.37;;;3.10;99.90;;;;;;5001069;28;20200;-87
2023/11/28 07:16:08;;;;;;;0.30;0.30;;;3.10;99.90;;;;;;4985432;28;20663;-86
2023/11/28 07:18:34;;;;;;;0.40;0.40;;;3.00;99.90;;;;;;4984665;28;20260;-88
2023/11/28 07:21:00;;;;;;;0.37;0.37;;;2.90;99.90;;;;;;5017208;28;20215;-86
2023/11/28 07:23:26;;;;;;;0.30;0.30;;;2.90;99.90;;;;;;5016832;28;20222;-90
2023/11/28 07:25:53;;;;;;;0.70;0.70;;;3.00;99.90;;;;;;5016758;28;20190;-89
2023/11/28 07:28:19;;;;;;;1.00;1.00;;;3.00;99.90;;;;;;5017402;28;20187;-87
2023/11/28 07:30:45;;;;;;;0.40;0.40;;;3.00;99.90;;;;;;5017358;28;20223;-89
2023/11/28 07:33:11;;;;;;;0.60;0.60;;;3.00;99.90;;;;;;5001120;28;20223;-89
2023/11/28 07:35:37;;;;;;;0.90;0.83;;;3.00;99.90;;;;;;4984489;28;20680;-89
2023/11/28 07:38:03;;;;;;;0.40;0.40;;;3.20;99.90;;;;;;5034536;28;20226;-89
2023/11/28 07:40:30;;;;;;;0.77;0.77;;;3.20;99.90;;;;;;5000850;28;20185;-89
2023/11/28 07:42:56;;;;;;;0.40;0.40;;;3.20;99.90;;;;;;4984242;28;20678;-89
2023/11/28 07:45:23;;;;;;;0.30;0.30;;;3.10;99.90;;;;;;5000055;28;20219;-90
2023/11/28 07:47:48;;;;;;;0.27;0.27;;;3.00;99.90;;;;;;5016280;28;20229;-89
2023/11/28 07:50:15;;;;;;;0.67;0.67;;;3.00;99.90;;;;;;5016128;28;20219;-87
2023/11/28 07:52:40;;;;;;;0.83;0.77;;;3.00;99.90;;;;;;4984925;28;20179;-88
2023/11/28 07:55:08;;;;;;;0.40;0.40;;;2.90;99.90;;;;;;5000462;28;20190;-88
2023/11/28 07:57:34;;;;;;;0.40;0.40;;;2.90;99.90;;;;;;5016723;28;20215;-87
2023/11/28 08:00:00;;;;;;;0.30;0.30;;;2.90;99.90;;;;;;5034107;28;20288;-87
2023/11/28 08:02:26;;;;;;;1.87;1.80;;;2.80;99.90;;;;;;4999655;28;20237;-89
2023/11/28 08:04:51;;;;;;;0.30;0.30;;;2.80;99.90;;;;;;4983914;28;20202;-88
2023/11/28 08:07:18;;;;;;;0.30;0.30;;;2.80;99.90;;;;;;5017023;28;20199;-87
2023/11/28 08:09:44;;;;;;;0.30;0.30;;;2.80;99.90;;;;;;4999718;28;20288;-87
2023/11/28 08:12:10;;;;;;;2.00;0.83;;;2.80;99.90;;;;;;4983710;28;20302;-88
2023/11/28 08:14:35;;;;;;;0.57;0.57;;;2.90;99.90;;;;;;5016277;28;20779;-88
2023/11/28 08:17:01;;;;;;;0.60;0.60;;;2.90;99.90;;;;;;5016393;28;20218;-88
2023/11/28 08:19:27;;;;;;;1.30;0.97;;;2.90;99.90;;;;;;5000095;28;20186;-88
2023/11/28 08:21:53;;;;;;;1.30;0.53;;;3.00;99.90;;;;;;4984113;28;20263;-87
2023/11/28 08:24:18;;;;;;;0.97;0.77;;;3.10;99.90;;;;;;4984178;28;20659;-87
2023/11/28 08:26:44;;;;;;;0.30;0.30;;;3.20;99.90;;;;;;5015893;28;20795;-88
2023/11/28 08:29:10;;;;;;;0.33;0.33;;;3.20;99.90;;;;;;4983566;28;20215;-88
2023/11/28 08:31:36;;;;;;;0.50;0.50;;;3.10;99.90;;;;;;4999994;28;20223;-89
2023/11/28 08:34:02;;;;;;;0.57;0.57;;;3.10;99.90;;;;;;5000037;28;20299;-89
2023/11/28 08:36:29;;;;;;;0.60;0.60;;;3.10;99.90;;;;;;5015604;28;20222;-88
2023/11/28 08:38:55;;;;;;;0.47;0.47;;;3.30;99.90;;;;;;5016191;28;20572;-88
2023/11/28 08:41:21;;;;;;;0.27;0.27;;;3.30;99.90;;;;;;4983516;28;20215;-89
2023/11/28 08:43:47;;;;;;;0.87;0.50;;;3.40;99.90;;;;;;4999318;28;20202;-87
2023/11/28 08:46:14;;;;;;;0.40;0.40;;;3.50;99.90;;;;;;5016256;28;20286;-86
2023/11/28 08:48:42;;;;;;;1.07;0.70;;;3.40;99.90;;;;;;5015536;28;20682;-88
2023/11/28 08:51:08;;;;;;;0.30;0.30;;;3.40;99.90;;;;;;4999254;28;20678;-92
2023/11/28 08:53:34;;;;;;;0.70;0.70;;;3.30;99.90;;;;;;5033076;28;20791;-90
2023/11/28 08:55:59;;;;;;;0.40;0.40;;;3.20;99.90;;;;;;4999078;28;20276;-89
2023/11/28 08:58:25;;;;;;;0.30;0.30;;;3.10;99.90;;;;;;4984322;28;20183;-88
2023/11/28 09:00:53;;;;;;;0.40;0.40;;;3.20;99.90;;;;;;5029115;28;20292;-91
2023/11/28 09:03:20;;;;;;;0.50;0.50;;;3.30;99.90;;;;;;5000077;28;20226;-90
2023/11/28 09:05:47;;;;;;;0.67;0.67;;;3.40;99.90;;;;;;5015819;28;20233;-90
2023/11/28 09:08:13;;;;;;;0.40;0.40;;;3.50;99.90;;;;;;5015592;28;20221;-90
2023/11/28 09:10:38;;;;;;;2.70;2.13;;;3.60;99.90;;;;;;5016374;28;20179;-88
2023/11/28 09:13:04;;;;;;;1.10;1.07;;;3.50;99.90;;;;;;5033029;28;20296;-89
2023/11/28 09:15:30;;;;;;;0.40;0.40;;;3.50;99.90;;;;;;4999534;28;20623;-88
2023/11/28 09:17:56;;;;;;;0.50;0.50;;;3.40;99.90;;;;;;5031551;28;20218;-85
2023/11/28 09:20:22;;;;;;;0.87;0.87;;;3.50;99.90;;;;;;4998910;28;20214;-89
2023/11/28 09:22:47;;;;;;;0.47;0.47;;;3.60;99.90;;;;;;5015144;28;20266;-89
2023/11/28 09:25:15;;;;;;;0.33;0.33;;;3.50;99.90;;;;;;5015893;28;20266;-91
2023/11/28 09:27:41;;;;;;;1.07;0.60;;;3.60;99.90;;;;;;5015670;28;20219;-89
2023/11/28 09:30:07;;;;;;;0.93;0.93;;;3.70;99.90;;;;;;5032876;28;20219;-91
2023/11/28 09:32:33;;;;;;;1.40;0.83;;;3.60;99.90;;;;;;5019277;28;20666;-90
2023/11/28 09:34:59;;;;;;;0.40;0.40;;;3.60;99.90;;;;;;5036415;28;20186;-90
2023/11/28 09:37:24;;;;;;;0.40;0.40;;;3.70;99.90;;;;;;5019495;28;20198;-90
2023/11/28 09:39:50;;;;;;;0.57;0.57;;;3.70;99.90;;;;;;5034931;28;20261;-90
2023/11/28 09:42:18;;;;;;;0.60;0.60;;;3.90;99.90;;;;;;5035850;28;20218;-88
2023/11/28 09:44:48;;;;;;;0.90;0.90;;;4.00;99.90;;;;;;5035262;28;20272;-88
2023/11/28 09:47:16;;;;;;;0.83;0.40;;;3.90;99.90;;;;;;5035366;28;20728;-89
2023/11/28 09:49:43;;;;;;;0.40;0.40;;;4.00;99.90;;;;;;5035315;28;20179;-90
2023/11/28 09:52:10;;;;;;;0.27;0.27;;;4.10;99.90;;;;;;5035967;28;20236;-89
2023/11/28 09:54:39;;;;;;;1.03;0.73;;;4.20;99.90;;;;;;5036066;28;20222;-89
2023/11/28 09:57:07;;;;;;;0.53;0.53;;;4.10;99.90;;;;;;5018983;28;20218;-89
2023/11/28 09:59:38;;;;;;;0.40;0.40;;;4.20;99.90;;;;;;5018517;28;20246;-90
2023/11/28 10:02:07;;;;;;;0.87;0.63;;;4.50;99.90;;;;;;5034770;28;20222;-88
2023/11/28 10:04:34;;;;;;;0.50;0.50;;;4.50;99.90;;;;;;5019975;28;20245;-89
2023/11/28 10:07:02;;;;;;;0.60;0.60;;;4.60;99.90;;;;;;5034896;28;20219;-89
2023/11/28 10:09:31;;;;;;;0.30;0.30;;;4.80;99.90;;;;;;5018585;28;20271;-89
2023/11/28 10:12:02;;;;;;;0.63;0.63;;;4.70;99.90;;;;;;5035014;28;20242;-90
2023/11/28 10:14:27;;;;;;;1.63;1.53;;;4.70;99.90;;;;;;5035230;28;20282;-90
2023/11/28 10:16:53;;;;;;;0.30;0.30;;;4.80;99.90;;;;;;5001849;28;20175;-91
2023/11/28 10:19:19;;;;;;;0.77;0.77;;;4.80;99.90;;;;;;5019159;28;20179;-87
2023/11/28 10:21:46;;;;;;;0.23;0.23;;;4.90;99.90;;;;;;5002347;28;20220;-89
2023/11/28 10:24:12;;;;;;;0.57;0.57;;;4.90;99.90;;;;;;5034627;28;20265;-88
2023/11/28 10:26:38;;;;;;;0.30;0.30;;;4.90;99.90;;;;;;5018485;28;20579;-88
2023/11/28 10:29:06;;;;;;;0.53;0.53;;;5.00;99.90;;;;;;5034826;28;20272;-88
2023/11/28 10:31:50;;;;;;;0.60;0.60;;;4.90;99.90;;;;;;5035205;28;20182;-87
2023/11/28 10:34:15;;;;;;;0.20;0.20;;;4.80;99.90;;;;;;5031773;28;20230;-87
2023/11/28 10:36:45;;;;;;;0.40;0.40;;;4.60;99.90;;;;;;5014779;28;20238;-87
2023/11/28 10:39:12;;;;;;;1.97;1.77;;;4.50;99.90;;;;;;5015445;28;20215;-87
2023/11/28 10:41:42;;;;;;;0.40;0.40;;;4.70;99.90;;;;;;5042879;28;20214;-88
2023/11/28 10:44:08;;;;;;;0.30;0.30;;;4.80;99.90;;;;;;5017872;28;20278;-89
2023/11/28 10:46:35;;;;;;;0.33;0.33;;;4.70;99.90;;;;;;5018409;28;20523;-88
2023/11/28 10:49:02;;;;;;;0.83;0.83;;;4.60;99.90;;;;;;5035184;28;20305;-88
2023/11/28 10:51:29;;;;;;;0.30;0.30;;;4.60;99.90;;;;;;5034281;28;20295;-88
2023/11/28 10:54:08;;;;;;;0.43;0.43;;;4.80;99.90;;;;;;5035086;28;20562;-89
2023/11/28 10:56:47;;;;;;;1.13;1.13;;;4.90;99.90;;;;;;5035288;28;20214;-89
2023/11/28 10:59:31;;;;;;;0.37;0.37;;;5.10;99.90;;;;;;5033702;28;20377;-89
2023/11/28 11:01:57;;;;;;;0.60;0.60;;;5.40;99.90;;;;;;5033886;28;20624;-88
2023/11/28 11:04:23;;;;;;;0.80;0.80;;;5.60;99.90;;;;;;5034621;28;20213;-88
2023/11/28 11:06:50;;;;;;;0.60;0.60;;;5.90;99.90;;;;;;5017441;28;20214;-88
2023/11/28 11:09:16;;;;;;;0.33;0.33;;;6.10;99.90;;;;;;5033889;28;20219;-89
2023/11/28 11:11:43;;;;;;;0.97;0.97;;;6.20;99.90;;;;;;5033994;28;20611;-89
2023/11/28 11:14:32;;;;;;;0.20;0.20;;;6.10;99.90;;;;;;5034869;28;20218;-89
2023/11/28 11:17:05;;;;;;;1.40;1.40;;;6.30;99.90;;;;;;5005493;28;20183;-91
2023/11/28 11:19:35;;;;;;;0.23;0.23;;;6.30;99.90;;;;;;5034599;28;20165;-88
2023/11/28 11:22:07;;;;;;;1.07;0.67;;;6.20;99.90;;;;;;5033874;28;20213;-91
2023/11/28 11:24:32;;;;;;;0.53;0.53;;;6.40;99.90;;;;;;5033169;28;20228;-89
2023/11/28 11:27:01;;;;;;;0.73;0.50;;;6.20;99.90;;;;;;5017146;28;20230;-89
2023/11/28 11:29:26;;;;;;;0.43;0.43;;;6.10;99.90;;;;;;5001596;28;20211;-89
2023/11/28 11:31:55;;;;;;;0.40;0.40;;;6.20;99.90;;;;;;5033984;28;20488;-89
2023/11/28 11:34:42;;;;;;;0.20;0.20;;;6.20;99.90;;;;;;5033872;28;20301;-88
2023/11/28 11:37:13;;;;;;;0.40;0.40;;;6.40;99.90;;;;;;5047132;28;20541;-89
2023/11/28 11:39:46;;;;;;;0.40;0.40;;;6.60;99.90;;;;;;5029720;28;20234;-87
2023/11/28 11:42:21;;;;;;;0.10;0.10;;;6.70;99.90;;;;;;5017501;28;20214;-89
2023/11/28 11:44:54;;;;;;;0.77;0.47;;;6.40;99.90;;;;;;5034266;28;20395;-90
2023/11/28 11:47:26;;;;;;;0.20;0.20;;;6.30;99.90;;;;;;5032583;28;20222;-90
2023/11/28 11:49:54;;;;;;;0.73;0.73;;;6.10;99.90;;;;;;5033117;28;20181;-90
2023/11/28 11:52:24;;;;;;;0.20;0.20;;;5.70;99.90;;;;;;5033475;28;20281;-88
2023/11/28 11:55:09;;;;;;;0.30;0.30;;;5.40;99.90;;;;;;5016538;28;20241;-89
2023/11/28 11:57:37;;;;;;;0.20;0.20;;;5.00;99.90;;;;;;5033034;28;20229;-89
2023/11/28 12:00:06;;;;;;;0.30;0.30;;;4.50;99.90;;;;;;5032437;28;20238;-89
2023/11/28 12:02:37;;;;;;;9.13;0.80;;;4.40;99.90;;;;;;5016776;28;20218;-91
2023/11/28 12:05:04;;;;;;;0.60;0.60;;;4.30;99.90;;;;;;5032912;28;20230;-90
2023/11/28 12:07:30;;;;;;;0.97;0.87;;;4.40;99.90;;;;;;5017527;28;20179;-90
2023/11/28 12:09:55;;;;;;;0.30;0.30;;;4.40;99.90;;;;;;5016691;28;20301;-91
2023/11/28 12:12:21;;;;;;;0.67;0.57;;;4.40;99.90;;;;;;5032700;28;20270;-90
2023/11/28 12:14:47;;;;;;;0.50;0.50;;;4.50;99.90;;;;;;5016194;28;20301;-91
2023/11/28 12:17:13;;;;;;;0.40;0.40;;;4.60;99.90;;;;;;5016078;28;20222;-90
2023/11/28 12:19:38;;;;;;;2.30;2.20;;;4.50;99.90;;;;;;5000141;28;20200;-90
2023/11/28 12:22:05;;;;;;;1.07;0.97;;;4.60;99.90;;;;;;5015424;28;20214;-91
2023/11/28 12:24:32;;;;;;;0.60;0.60;;;4.70;99.90;;;;;;5015855;28;20283;-91
2023/11/28 12:27:02;;;;;;;0.20;0.20;;;4.80;99.90;;;;;;5031848;28;20226;-91
2023/11/28 12:29:30;;;;;;;0.30;0.30;;;4.70;99.90;;;;;;5032110;28;20237;-91
2023/11/28 12:31:56;;;;;;;0.60;0.60;;;4.60;99.90;;;;;;5032123;28;20182;-90
2023/11/28 12:34:24;;;;;;;0.83;0.83;;;4.80;99.90;;;;;;5032119;28;20614;-92
2023/11/28 12:36:50;;;;;;;0.40;0.40;;;5.00;99.90;;;;;;5032203;28;20298;-91
2023/11/28 12:39:22;;;;;;;1.10;0.87;;;5.10;99.90;;;;;;5032341;28;20238;-89
2023/11/28 12:41:48;;;;;;;0.80;0.80;;;5.10;99.90;;;;;;5032351;28;20222;-90
2023/11/28 12:44:14;;;;;;;1.23;1.23;;;5.30;99.90;;;;;;5016012;28;20242;-91
2023/11/28 12:46:41;;;;;;;3.80;1.10;;;5.70;99.90;;;;;;5015881;28;20186;-85
2023/11/28 12:49:11;;;;;;;0.50;0.50;;;6.00;99.90;;;;;;5033974;28;20217;-87
2023/11/28 12:51:37;;;;;;;0.50;0.50;;;6.30;99.90;;;;;;5032197;28;20215;-90
2023/11/28 12:54:08;;;;;;;0.57;0.57;;;6.50;99.90;;;;;;5032035;28;20309;-90
2023/11/28 12:56:35;;;;;;;0.50;0.50;;;6.50;99.90;;;;;;5032246;28;20276;-90